Station History

Weather Underground - logo

Station Historical Data
Daily Summary for February 17, 2018 Units:  English    Metric   Both
« Previous Day
Next Day »
Daily Weekly Monthly Yearly Custom
  High: Low: Average:
Temperature: 70.1 °F 36.7 °F 51.7 °F
Dew Point: 41.4 °F 33.0 °F 37 °F
Humidity: 89 % 27 % 62 %
Wind Speed: 6.9 mph 0.0 mph 0.8 mph
Wind Gust: 3.5 mph - -
Wind:- - WSW
Pressure: 30.21 in 30.02 in -
Precipitation: 0.00 in    
Historical Graphs
 
 
Tabular Data for February 17, 2018
Time Temperature Dew Point Pressure Wind Wind Speed Wind Gust Humidity Rainfall Rate (Hourly)
00:00 41.9 °F 36.2 °F 30.20 in Calm     80 % 0.00 in
00:05 42.3 °F 36.6 °F 30.20 in Calm     80 % 0.00 in
00:10 42.2 °F 36.2 °F 30.20 in Calm     79 % 0.00 in
00:15 41.8 °F 35.8 °F 30.20 in Calm     79 % 0.00 in
00:20 41.5 °F 35.5 °F 30.20 in Calm     79 % 0.00 in
00:25 41.1 °F 35.4 °F 30.19 in Calm     80 % 0.00 in
00:30 40.9 °F 35.2 °F 30.19 in Calm     80 % 0.00 in
00:35 40.6 °F 35.2 °F 30.19 in Calm     81 % 0.00 in
00:41 40.1 °F 34.7 °F 30.20 in Calm     81 % 0.00 in
00:46 39.7 °F 34.7 °F 30.20 in Calm     82 % 0.00 in
00:51 39.5 °F 34.8 °F 30.20 in Calm     83 % 0.00 in
00:56 39.4 °F 34.7 °F 30.20 in Calm     83 % 0.00 in
01:01 39.3 °F 34.6 °F 30.20 in Calm     83 % 0.00 in
01:06 39.2 °F 34.5 °F 30.20 in Calm     83 % 0.00 in
01:11 38.9 °F 34.2 °F 30.20 in Calm     83 % 0.00 in
01:16 38.5 °F 33.8 °F 30.20 in Calm     83 % 0.00 in
01:21 38.5 °F 34.4 °F 30.20 in Calm     85 % 0.00 in
01:26 38.6 °F 34.8 °F 30.20 in Calm     86 % 0.00 in
01:31 39.0 °F 34.9 °F 30.20 in Calm     85 % 0.00 in
01:36 39.0 °F 34.9 °F 30.20 in Calm     85 % 0.00 in
01:41 39.1 °F 35.0 °F 30.20 in Calm     85 % 0.00 in
01:46 38.8 °F 34.4 °F 30.20 in Calm     84 % 0.00 in
01:51 38.6 °F 34.5 °F 30.20 in Calm     85 % 0.00 in
01:56 38.7 °F 34.9 °F 30.20 in Calm     86 % 0.00 in
02:01 39.0 °F 35.2 °F 30.20 in Calm     86 % 0.00 in
02:06 39.1 °F 34.7 °F 30.20 in WNW 6.9 mph   84 % 0.00 in
02:11 39.2 °F 34.8 °F 30.20 in Calm     84 % 0.00 in
02:16 39.1 °F 35.0 °F 30.20 in Calm     85 % 0.00 in
02:21 38.9 °F 34.8 °F 30.20 in Calm     85 % 0.00 in
02:26 39.0 °F 34.9 °F 30.20 in Calm     85 % 0.00 in
02:31 38.9 °F 34.5 °F 30.19 in Calm     84 % 0.00 in
02:36 38.8 °F 34.4 °F 30.20 in Calm     84 % 0.00 in
02:41 38.7 °F 34.3 °F 30.20 in Calm     84 % 0.00 in
02:46 38.3 °F 33.9 °F 30.20 in Calm     84 % 0.00 in
02:51 37.9 °F 33.5 °F 30.20 in Calm     84 % 0.00 in
02:56 37.8 °F 34.0 °F 30.20 in Calm     86 % 0.00 in
03:01 37.9 °F 34.4 °F 30.20 in Calm     87 % 0.00 in
03:06 38.0 °F 34.5 °F 30.19 in Calm     87 % 0.00 in
03:11 38.0 °F 34.5 °F 30.19 in Calm     87 % 0.00 in
03:16 38.1 °F 34.6 °F 30.19 in Calm     87 % 0.00 in
03:21 38.2 °F 34.7 °F 30.19 in Calm     87 % 0.00 in
03:27 38.1 °F 34.3 °F 30.19 in Calm     86 % 0.00 in
03:32 38.0 °F 34.2 °F 30.19 in Calm     86 % 0.00 in
03:37 37.9 °F 34.1 °F 30.19 in Calm     86 % 0.00 in
03:42 37.9 °F 34.1 °F 30.19 in Calm     86 % 0.00 in
03:47 37.8 °F 34.0 °F 30.19 in Calm     86 % 0.00 in
03:52 37.6 °F 33.5 °F 30.19 in Calm     85 % 0.00 in
03:57 37.3 °F 33.2 °F 30.19 in Calm     85 % 0.00 in
04:02 37.2 °F 33.4 °F 30.19 in Calm     86 % 0.00 in
04:07 37.2 °F 33.7 °F 30.19 in Calm     87 % 0.00 in
04:12 37.6 °F 34.1 °F 30.19 in Calm     87 % 0.00 in
04:17 38.2 °F 34.4 °F 30.19 in Calm     86 % 0.00 in
04:22 38.4 °F 34.3 °F 30.19 in Calm     85 % 0.00 in
04:27 38.3 °F 34.2 °F 30.19 in Calm     85 % 0.00 in
04:32 38.2 °F 34.1 °F 30.19 in Calm     85 % 0.00 in
04:37 37.9 °F 33.8 °F 30.18 in Calm     85 % 0.00 in
04:42 38.0 °F 34.2 °F 30.18 in Calm     86 % 0.00 in
04:47 37.9 °F 33.5 °F 30.18 in North 1.2 mph   84 % 0.00 in
04:52 37.7 °F 33.3 °F 30.18 in Calm     84 % 0.00 in
04:57 37.6 °F 33.5 °F 30.18 in Calm     85 % 0.00 in
05:02 37.3 °F 33.2 °F 30.18 in Calm     85 % 0.00 in
05:07 37.2 °F 33.4 °F 30.18 in Calm     86 % 0.00 in
05:12 37.1 °F 33.6 °F 30.18 in Calm     87 % 0.00 in
05:17 37.2 °F 33.7 °F 30.18 in Calm     87 % 0.00 in
05:22 37.2 °F 33.7 °F 30.18 in Calm     87 % 0.00 in
05:27 37.3 °F 33.8 °F 30.18 in Calm     87 % 0.00 in
05:32 37.3 °F 33.5 °F 30.18 in Calm     86 % 0.00 in
05:37 37.3 °F 33.5 °F 30.18 in Calm     86 % 0.00 in
05:42 37.3 °F 33.5 °F 30.18 in Calm     86 % 0.00 in
05:47 37.1 °F 33.3 °F 30.18 in Calm     86 % 0.00 in
05:52 36.8 °F 33.0 °F 30.18 in Calm     86 % 0.00 in
05:57 36.7 °F 33.2 °F 30.18 in Calm     87 % 0.00 in
06:02 36.8 °F 33.3 °F 30.18 in Calm     87 % 0.00 in
06:07 37.1 °F 33.9 °F 30.18 in Calm     88 % 0.00 in
06:12 37.3 °F 33.8 °F 30.18 in Calm     87 % 0.00 in
06:17 37.1 °F 33.3 °F 30.18 in Calm     86 % 0.00 in
06:22 37.1 °F 33.6 °F 30.18 in Calm     87 % 0.00 in
06:27 37.3 °F 34.1 °F 30.18 in Calm     88 % 0.00 in
06:32 37.5 °F 34.0 °F 30.18 in Calm     87 % 0.00 in
06:37 37.5 °F 34.0 °F 30.18 in Calm     87 % 0.00 in
06:42 37.5 °F 33.7 °F 30.18 in Calm     86 % 0.00 in
06:47 37.3 °F 33.5 °F 30.18 in Calm     86 % 0.00 in
06:53 37.3 °F 33.5 °F 30.18 in Calm     86 % 0.00 in
06:58 37.4 °F 33.6 °F 30.19 in Calm     86 % 0.00 in
07:03 37.3 °F 33.5 °F 30.19 in Calm     86 % 0.00 in
07:08 37.2 °F 33.4 °F 30.19 in Calm     86 % 0.00 in
07:13 37.1 °F 33.3 °F 30.19 in Calm     86 % 0.00 in
07:18 37.2 °F 33.4 °F 30.19 in Calm     86 % 0.00 in
07:23 37.1 °F 33.0 °F 30.19 in Calm     85 % 0.00 in
07:28 37.0 °F 33.2 °F 30.20 in Calm     86 % 0.00 in
07:33 37.1 °F 33.6 °F 30.20 in Calm     87 % 0.00 in
07:38 37.3 °F 34.1 °F 30.20 in Calm     88 % 0.00 in
07:43 37.7 °F 34.5 °F 30.20 in Calm     88 % 0.00 in
07:48 39.1 °F 36.1 °F 30.20 in Calm     89 % 0.00 in
07:53 41.0 °F 37.4 °F 30.21 in Calm     87 % 0.00 in
07:58 42.4 °F 37.3 °F 30.21 in Calm     82 % 0.00 in
08:03 42.8 °F 37.4 °F 30.21 in Calm     81 % 0.00 in
08:08 43.5 °F 37.7 °F 30.21 in Calm     80 % 0.00 in
08:13 44.6 °F 38.5 °F 30.21 in Calm     79 % 0.00 in
08:18 45.7 °F 38.9 °F 30.21 in Calm     77 % 0.00 in
08:23 46.8 °F 38.9 °F 30.21 in Calm     74 % 0.00 in
08:28 47.9 °F 39.3 °F 30.21 in Calm     72 % 0.00 in
08:33 49.7 °F 39.2 °F 30.21 in SE 1.2 mph 1.2 mph 67 % 0.00 in
08:38 51.1 °F 40.1 °F 30.21 in Calm     66 % 0.00 in
08:43 52.4 °F 41.0 °F 30.21 in SE 1.2 mph   65 % 0.00 in
08:48 52.9 °F 40.2 °F 30.21 in SE 1.2 mph 1.2 mph 62 % 0.00 in
08:53 53.0 °F 40.3 °F 30.21 in Calm   0.2 mph 62 % 0.00 in
08:58 53.7 °F 40.1 °F 30.21 in SSE 2.3 mph 2.3 mph 60 % 0.00 in
09:03 54.3 °F 40.7 °F 30.21 in Calm     60 % 0.00 in
09:08 54.5 °F 39.6 °F 30.21 in ESE 1.0 mph 1.0 mph 57 % 0.00 in
09:13 54.8 °F 39.8 °F 30.21 in South 2.3 mph 2.3 mph 57 % 0.00 in
09:18 55.3 °F 40.3 °F 30.21 in South 3.5 mph 3.5 mph 57 % 0.00 in
09:23 55.8 °F 39.9 °F 30.21 in SE 2.3 mph 2.3 mph 55 % 0.00 in
09:28 56.1 °F 40.1 °F 30.21 in ENE 3.5 mph 3.5 mph 55 % 0.00 in
09:33 56.5 °F 39.6 °F 30.21 in ENE 3.5 mph 3.5 mph 53 % 0.00 in
09:38 56.8 °F 40.3 °F 30.21 in SSE 2.3 mph 2.3 mph 54 % 0.00 in
09:43 57.3 °F 40.3 °F 30.21 in SE 2.3 mph 2.3 mph 53 % 0.00 in
09:48 57.7 °F 41.2 °F 30.21 in SSE 2.0 mph 2.0 mph 54 % 0.00 in
09:53 58.0 °F 41.0 °F 30.21 in SSE 2.3 mph 2.3 mph 53 % 0.00 in
09:58 58.3 °F 40.7 °F 30.21 in SSE 3.5 mph 3.5 mph 52 % 0.00 in
10:03 58.6 °F 40.5 °F 30.20 in Calm     51 % 0.00 in
10:08 58.9 °F 40.8 °F 30.20 in SSE 1.2 mph 1.2 mph 51 % 0.00 in
10:13 59.6 °F 41.4 °F 30.20 in South 1.2 mph   51 % 0.00 in
10:18 60.2 °F 41.0 °F 30.20 in SSE 1.2 mph 1.2 mph 49 % 0.00 in
10:23 60.6 °F 40.2 °F 30.20 in NW 1.0 mph 1.0 mph 47 % 0.00 in
10:28 60.6 °F 41.3 °F 30.20 in ENE 1.2 mph 1.2 mph 49 % 0.00 in
10:33 60.6 °F 40.8 °F 30.20 in NW 2.3 mph 2.3 mph 48 % 0.00 in
10:38 60.6 °F 40.2 °F 30.19 in NNW 2.3 mph 2.3 mph 47 % 0.00 in
10:43 60.6 °F 40.8 °F 30.19 in SSW 2.0 mph 2.0 mph 48 % 0.00 in
10:48 60.9 °F 40.5 °F 30.19 in SSE 2.3 mph 2.3 mph 47 % 0.00 in
10:53 61.1 °F 41.2 °F 30.19 in WSW 1.2 mph   48 % 0.00 in
10:58 61.8 °F 39.6 °F 30.19 in East 2.3 mph 2.3 mph 44 % 0.00 in
11:03 62.6 °F 39.8 °F 30.19 in SSE 2.3 mph 2.3 mph 43 % 0.00 in
11:09 63.2 °F 40.9 °F 30.18 in ESE 2.3 mph 2.3 mph 44 % 0.00 in
11:14 63.7 °F 40.8 °F 30.18 in SSE 1.2 mph 1.2 mph 43 % 0.00 in
11:19 64.1 °F 38.6 °F 30.18 in NW 2.3 mph 2.3 mph 39 % 0.00 in
11:24 63.6 °F 37.5 °F 30.18 in North 3.5 mph 3.5 mph 38 % 0.00 in
11:29 62.9 °F 37.5 °F 30.17 in WNW 2.3 mph 2.3 mph 39 % 0.00 in
11:34 62.9 °F 37.5 °F 30.17 in South 2.3 mph 2.3 mph 39 % 0.00 in
11:39 63.5 °F 37.4 °F 30.17 in NW 3.5 mph 3.5 mph 38 % 0.00 in
11:44 63.4 °F 38.6 °F 30.17 in NNW 1.2 mph 1.2 mph 40 % 0.00 in
11:49 64.2 °F 38.7 °F 30.16 in ENE 1.2 mph 1.2 mph 39 % 0.00 in
11:54 64.6 °F 38.4 °F 30.16 in NNW 2.3 mph 2.3 mph 38 % 0.00 in
11:59 64.9 °F 37.3 °F 30.16 in West 2.3 mph 2.3 mph 36 % 0.00 in
12:04 64.7 °F 36.4 °F 30.16 in NW 1.2 mph 1.2 mph 35 % 0.00 in
12:09 65.0 °F 37.4 °F 30.15 in East 2.3 mph 2.3 mph 36 % 0.00 in
12:14 65.7 °F 36.5 °F 30.15 in East 2.3 mph 2.3 mph 34 % 0.00 in
12:19 66.3 °F 37.8 °F 30.15 in SSE 3.5 mph 3.5 mph 35 % 0.00 in
12:24 66.9 °F 38.3 °F 30.14 in North 2.3 mph 2.3 mph 35 % 0.00 in
12:29 67.2 °F 37.1 °F 30.14 in ESE 1.2 mph 1.2 mph 33 % 0.00 in
12:34 67.0 °F 36.9 °F 30.14 in NW 3.0 mph 3.0 mph 33 % 0.00 in
12:39 66.8 °F 37.5 °F 30.14 in NNE 1.2 mph 1.2 mph 34 % 0.00 in
12:44 67.0 °F 37.7 °F 30.13 in WNW 1.2 mph 1.2 mph 34 % 0.00 in
12:49 67.1 °F 37.8 °F 30.13 in NW 3.5 mph 3.5 mph 34 % 0.00 in
12:54 67.2 °F 37.9 °F 30.12 in NW 2.3 mph 2.3 mph 34 % 0.00 in
12:59 67.3 °F 37.2 °F 30.12 in SW 1.2 mph 1.2 mph 33 % 0.00 in
13:05 68.1 °F 40.1 °F 30.12 in SSE 3.5 mph 3.5 mph 36 % 0.00 in
13:10 68.8 °F 37.7 °F 30.11 in NW 2.3 mph 2.3 mph 32 % 0.00 in
13:15 68.6 °F 36.7 °F 30.11 in SE 2.3 mph 2.3 mph 31 % 0.00 in
13:20 69.1 °F 38.0 °F 30.11 in ESE 1.2 mph 1.2 mph 32 % 0.00 in
13:25 69.0 °F 37.1 °F 30.10 in WNW 2.3 mph 2.3 mph 31 % 0.00 in
13:30 68.7 °F 35.1 °F 30.10 in NW 1.2 mph 1.2 mph 29 % 0.00 in
13:35 68.6 °F 35.9 °F 30.10 in NW 2.3 mph 2.3 mph 30 % 0.00 in
13:40 68.5 °F 35.0 °F 30.10 in NW 2.3 mph 2.3 mph 29 % 0.00 in
13:45 68.7 °F 35.1 °F 30.09 in WNW 2.3 mph 2.3 mph 29 % 0.00 in
13:50 68.6 °F 35.1 °F 30.09 in WNW 3.5 mph 3.5 mph 29 % 0.00 in
13:55 68.6 °F 35.9 °F 30.09 in WNW 1.2 mph 1.2 mph 30 % 0.00 in
14:00 68.8 °F 36.1 °F 30.09 in NW 3.5 mph 3.5 mph 30 % 0.00 in
14:05 68.9 °F 37.0 °F 30.08 in ESE 1.2 mph 1.2 mph 31 % 0.00 in
14:10 69.7 °F 36.0 °F 30.08 in NNW 3.5 mph 3.5 mph 29 % 0.00 in
14:15 69.8 °F 36.1 °F 30.08 in North 1.2 mph 1.2 mph 29 % 0.00 in
14:20 69.9 °F 36.2 °F 30.08 in NW 3.5 mph 3.5 mph 29 % 0.00 in
14:25 69.7 °F 36.9 °F 30.08 in NW 1.2 mph 1.2 mph 30 % 0.00 in
14:30 69.9 °F 35.3 °F 30.08 in WNW 2.3 mph 2.3 mph 28 % 0.00 in
14:35 69.8 °F 36.9 °F 30.07 in NW 2.3 mph 2.3 mph 30 % 0.00 in
14:40 69.7 °F 36.9 °F 30.07 in NW 2.3 mph 2.3 mph 30 % 0.00 in
14:45 69.9 °F 36.2 °F 30.07 in NNW 3.5 mph 3.5 mph 29 % 0.00 in
14:50 69.9 °F 37.0 °F 30.07 in SSE 1.2 mph 1.2 mph 30 % 0.00 in
14:55 70.1 °F 36.3 °F 30.06 in NW 3.5 mph 3.5 mph 29 % 0.00 in
15:00 70.1 °F 35.5 °F 30.06 in WNW 3.5 mph 3.5 mph 28 % 0.00 in
15:05 70.0 °F 35.4 °F 30.06 in WNW 2.3 mph 2.3 mph 28 % 0.00 in
15:10 70.0 °F 35.4 °F 30.06 in Calm     28 % 0.00 in
15:15 70.0 °F 35.4 °F 30.05 in NW 2.3 mph 2.3 mph 28 % 0.00 in
15:20 70.0 °F 36.3 °F 30.05 in NNW 2.3 mph 2.3 mph 29 % 0.00 in
15:25 70.0 °F 36.3 °F 30.05 in Calm     29 % 0.00 in
15:30 69.8 °F 34.3 °F 30.05 in WNW 1.2 mph   27 % 0.00 in
15:35 69.6 °F 35.9 °F 30.05 in NNW 1.2 mph 1.2 mph 29 % 0.00 in
15:40 69.6 °F 35.0 °F 30.05 in NW 3.5 mph 3.5 mph 28 % 0.00 in
15:45 69.5 °F 35.8 °F 30.05 in NW 1.2 mph 1.2 mph 29 % 0.00 in
15:50 69.6 °F 35.9 °F 30.05 in WNW 2.3 mph   29 % 0.00 in
15:55 69.6 °F 35.0 °F 30.05 in WNW 3.5 mph 3.5 mph 28 % 0.00 in
16:00 69.5 °F 34.9 °F 30.05 in NW 1.2 mph 1.2 mph 28 % 0.00 in
16:05 69.5 °F 35.8 °F 30.05 in NW 2.3 mph 2.3 mph 29 % 0.00 in
16:10 69.4 °F 36.6 °F 30.05 in NW 3.5 mph 3.5 mph 30 % 0.00 in
16:15 69.2 °F 36.4 °F 30.05 in NW 3.5 mph 3.5 mph 30 % 0.00 in
16:20 69.1 °F 36.3 °F 30.05 in WNW 2.3 mph 2.3 mph 30 % 0.00 in
16:25 68.9 °F 36.2 °F 30.05 in NW 2.3 mph 2.3 mph 30 % 0.00 in
16:30 68.8 °F 36.9 °F 30.05 in NNW 2.3 mph 2.3 mph 31 % 0.00 in
16:35 68.6 °F 36.7 °F 30.05 in WNW 2.3 mph 2.3 mph 31 % 0.00 in
16:40 68.4 °F 37.4 °F 30.05 in NW 2.3 mph 2.3 mph 32 % 0.00 in
16:45 68.1 °F 37.9 °F 30.05 in NW 2.3 mph 2.3 mph 33 % 0.00 in
16:50 67.9 °F 37.7 °F 30.05 in NW 1.0 mph 1.0 mph 33 % 0.00 in
16:55 67.7 °F 38.3 °F 30.05 in NW 1.2 mph 1.2 mph 34 % 0.00 in
17:00 67.4 °F 37.3 °F 30.05 in NW 1.2 mph 1.5 mph 33 % 0.00 in
17:05 67.1 °F 37.8 °F 30.05 in NNW 2.3 mph 2.3 mph 34 % 0.00 in
17:10 66.8 °F 37.5 °F 30.05 in NW 1.2 mph 1.2 mph 34 % 0.00 in
17:15 66.4 °F 37.2 °F 30.05 in NW 2.3 mph 2.3 mph 34 % 0.00 in
17:20 66.0 °F 37.5 °F 30.04 in Calm     35 % 0.00 in
17:25 65.5 °F 37.8 °F 30.04 in Calm     36 % 0.00 in
17:30 64.9 °F 38.7 °F 30.04 in Calm     38 % 0.00 in
17:35 64.2 °F 38.0 °F 30.04 in Calm     38 % 0.00 in
17:40 63.5 °F 38.1 °F 30.04 in Calm     39 % 0.00 in
17:45 62.7 °F 38.6 °F 30.04 in Calm     41 % 0.00 in
17:50 62.0 °F 39.2 °F 30.04 in Calm     43 % 0.00 in
17:55 61.1 °F 37.8 °F 30.04 in Calm     42 % 0.00 in
18:00 60.7 °F 38.6 °F 30.04 in Calm     44 % 0.00 in
18:05 60.1 °F 38.7 °F 30.04 in Calm     45 % 0.00 in
18:10 59.7 °F 39.4 °F 30.04 in Calm     47 % 0.00 in
18:15 59.2 °F 39.5 °F 30.04 in Calm     48 % 0.00 in
18:20 58.5 °F 39.9 °F 30.04 in Calm     50 % 0.00 in
18:26 57.9 °F 39.9 °F 30.04 in Calm     51 % 0.00 in
18:31 57.2 °F 40.2 °F 30.04 in Calm     53 % 0.00 in
18:36 56.7 °F 38.8 °F 30.04 in Calm     51 % 0.00 in
18:41 56.3 °F 39.9 °F 30.04 in Calm     54 % 0.00 in
18:46 55.7 °F 40.2 °F 30.04 in Calm     56 % 0.00 in
18:51 55.1 °F 40.6 °F 30.04 in Calm     58 % 0.00 in
18:56 54.5 °F 40.9 °F 30.04 in Calm     60 % 0.00 in
19:01 54.1 °F 40.1 °F 30.04 in Calm     59 % 0.00 in
19:06 53.9 °F 39.9 °F 30.04 in Calm     59 % 0.00 in
19:11 53.8 °F 39.4 °F 30.04 in Calm     58 % 0.00 in
19:16 53.6 °F 39.2 °F 30.04 in Calm     58 % 0.00 in
19:21 53.2 °F 39.2 °F 30.04 in Calm     59 % 0.00 in
19:26 52.9 °F 39.4 °F 30.04 in Calm     60 % 0.00 in
19:31 52.7 °F 39.2 °F 30.04 in Calm     60 % 0.00 in
19:36 52.5 °F 39.4 °F 30.04 in Calm     61 % 0.00 in
19:41 52.6 °F 39.5 °F 30.04 in Calm     61 % 0.00 in
19:46 52.6 °F 39.5 °F 30.04 in Calm     61 % 0.00 in
19:51 52.3 °F 39.2 °F 30.04 in Calm     61 % 0.00 in
19:56 52.1 °F 39.1 °F 30.04 in Calm     61 % 0.00 in
20:01 51.9 °F 39.3 °F 30.04 in Calm     62 % 0.00 in
20:06 51.5 °F 38.9 °F 30.04 in Calm     62 % 0.00 in
20:11 51.4 °F 39.2 °F 30.04 in Calm     63 % 0.00 in
20:16 51.4 °F 40.8 °F 30.04 in Calm     67 % 0.00 in
20:21 51.1 °F 41.3 °F 30.03 in Calm     69 % 0.00 in
20:26 50.4 °F 40.2 °F 30.04 in Calm     68 % 0.00 in
20:31 50.0 °F 39.5 °F 30.04 in Calm     67 % 0.00 in
20:36 49.9 °F 40.1 °F 30.04 in Calm     69 % 0.00 in
20:41 49.5 °F 39.4 °F 30.04 in Calm     68 % 0.00 in
20:46 49.5 °F 39.7 °F 30.04 in Calm     69 % 0.00 in
20:51 49.2 °F 39.5 °F 30.04 in Calm     69 % 0.00 in
20:56 49.0 °F 39.3 °F 30.04 in Calm     69 % 0.00 in
21:01 49.1 °F 39.7 °F 30.04 in Calm     70 % 0.00 in
21:06 48.9 °F 39.5 °F 30.05 in Calm     70 % 0.00 in
21:11 48.6 °F 39.3 °F 30.05 in Calm     70 % 0.00 in
21:16 48.3 °F 39.3 °F 30.05 in Calm     71 % 0.00 in
21:21 48.0 °F 39.4 °F 30.05 in Calm     72 % 0.00 in
21:26 47.7 °F 39.5 °F 30.05 in Calm     73 % 0.00 in
21:31 47.6 °F 39.4 °F 30.05 in Calm     73 % 0.00 in
21:36 47.6 °F 39.0 °F 30.05 in Calm     72 % 0.00 in
21:41 47.6 °F 39.0 °F 30.05 in Calm     72 % 0.00 in
21:46 47.5 °F 38.9 °F 30.05 in Calm     72 % 0.00 in
21:51 47.8 °F 38.8 °F 30.04 in Calm     71 % 0.00 in
21:56 47.8 °F 38.5 °F 30.05 in Calm     70 % 0.00 in
22:01 47.5 °F 38.9 °F 30.05 in Calm     72 % 0.00 in
22:06 47.1 °F 38.5 °F 30.05 in Calm     72 % 0.00 in
22:11 46.8 °F 38.6 °F 30.04 in Calm     73 % 0.00 in
22:16 46.3 °F 38.5 °F 30.04 in Calm     74 % 0.00 in
22:21 45.8 °F 38.3 °F 30.04 in Calm     75 % 0.00 in
22:26 45.7 °F 38.6 °F 30.04 in Calm     76 % 0.00 in
22:31 45.4 °F 38.6 °F 30.04 in Calm     77 % 0.00 in
22:36 45.2 °F 38.4 °F 30.04 in Calm     77 % 0.00 in
22:41 45.3 °F 39.2 °F 30.03 in Calm     79 % 0.00 in
22:46 45.4 °F 38.6 °F 30.03 in Calm     77 % 0.00 in
22:51 45.3 °F 38.5 °F 30.03 in Calm     77 % 0.00 in
22:56 45.5 °F 39.0 °F 30.03 in Calm     78 % 0.00 in
23:01 45.4 °F 38.6 °F 30.03 in Calm     77 % 0.00 in
23:06 45.1 °F 39.0 °F 30.03 in Calm     79 % 0.00 in
23:11 44.5 °F 38.1 °F 30.03 in Calm     78 % 0.00 in
23:16 44.0 °F 37.9 °F 30.03 in Calm     79 % 0.00 in
23:21 43.7 °F 37.9 °F 30.03 in Calm     80 % 0.00 in
23:26 43.6 °F 37.8 °F 30.02 in Calm     80 % 0.00 in
23:31 43.7 °F 37.9 °F 30.02 in Calm     80 % 0.00 in
23:36 44.2 °F 38.4 °F 30.02 in Calm     80 % 0.00 in
23:41 44.7 °F 38.6 °F 30.02 in Calm     79 % 0.00 in
23:46 44.7 °F 37.9 °F 30.02 in Calm     77 % 0.00 in
23:51 44.3 °F 37.9 °F 30.02 in Calm     78 % 0.00 in
23:56 43.8 °F 37.1 °F 30.02 in Calm     77 % 0.00 in
Park Place, Exeter, Tulare County, California, USA
Compliments of Weather Underground - 2.75 mb